sensor_id;sensor_type;location;lat;lon;timestamp;pressure;altitude;pressure_sealevel;temperature;humidity
75933;BME280;64803;52.356;5.310;2023-05-07T00:00:55;101962.31;;;13.84;100.00
75933;BME280;64803;52.356;5.310;2023-05-07T00:03:21;101970.41;;;13.84;100.00
75933;BME280;64803;52.356;5.310;2023-05-07T00:05:47;101976.13;;;13.81;100.00
75933;BME280;64803;52.356;5.310;2023-05-07T00:08:13;101981.88;;;13.78;100.00
75933;BME280;64803;52.356;5.310;2023-05-07T00:10:39;101984.25;;;13.73;100.00
75933;BME280;64803;52.356;5.310;2023-05-07T00:13:05;101984.91;;;13.67;100.00
75933;BME280;64803;52.356;5.310;2023-05-07T00:15:31;101984.41;;;13.64;100.00
75933;BME280;64803;52.356;5.310;2023-05-07T00:17:57;101982.25;;;13.59;100.00
75933;BME280;64803;52.356;5.310;2023-05-07T00:20:25;101976.34;;;13.55;100.00
75933;BME280;64803;52.356;5.310;2023-05-07T00:22:51;101977.50;;;13.53;100.00
75933;BME280;64803;52.356;5.310;2023-05-07T00:25:17;101980.72;;;13.56;100.00
75933;BME280;64803;52.356;5.310;2023-05-07T00:27:45;101981.56;;;13.57;100.00
75933;BME280;64803;52.356;5.310;2023-05-07T00:30:11;101973.81;;;13.54;100.00
75933;BME280;64803;52.356;5.310;2023-05-07T00:32:38;101975.16;;;13.58;100.00
75933;BME280;64803;52.356;5.310;2023-05-07T00:35:05;101962.16;;;13.53;100.00
75933;BME280;64803;52.356;5.310;2023-05-07T00:37:31;101958.97;;;13.50;100.00
75933;BME280;64803;52.356;5.310;2023-05-07T00:39:57;101958.81;;;13.43;100.00
75933;BME280;64803;52.356;5.310;2023-05-07T00:42:23;101966.75;;;13.37;100.00
75933;BME280;64803;52.356;5.310;2023-05-07T00:44:49;101956.78;;;13.29;100.00
75933;BME280;64803;52.356;5.310;2023-05-07T00:47:16;101959.81;;;13.26;100.00
75933;BME280;64803;52.356;5.310;2023-05-07T00:49:44;101951.41;;;13.21;100.00
75933;BME280;64803;52.356;5.310;2023-05-07T00:52:14;101950.72;;;13.19;100.00
75933;BME280;64803;52.356;5.310;2023-05-07T00:54:41;101954.94;;;13.14;100.00
75933;BME280;64803;52.356;5.310;2023-05-07T00:57:09;101955.25;;;13.11;100.00
75933;BME280;64803;52.356;5.310;2023-05-07T00:59:37;101948.00;;;13.03;100.00
75933;BME280;64803;52.356;5.310;2023-05-07T01:02:03;101952.84;;;12.92;100.00
75933;BME280;64803;52.356;5.310;2023-05-07T01:04:29;101962.28;;;12.96;100.00
75933;BME280;64803;52.356;5.310;2023-05-07T01:06:56;101960.44;;;12.96;100.00
75933;BME280;64803;52.356;5.310;2023-05-07T01:09:24;101961.13;;;12.98;100.00
75933;BME280;64803;52.356;5.310;2023-05-07T01:11:52;101942.06;;;12.92;100.00
75933;BME280;64803;52.356;5.310;2023-05-07T01:14:19;101954.25;;;13.12;100.00
75933;BME280;64803;52.356;5.310;2023-05-07T01:16:47;101965.38;;;13.17;100.00
75933;BME280;64803;52.356;5.310;2023-05-07T01:19:17;101962.66;;;13.17;100.00
75933;BME280;64803;52.356;5.310;2023-05-07T01:21:46;101961.69;;;13.18;100.00
75933;BME280;64803;52.356;5.310;2023-05-07T01:24:14;101960.16;;;13.15;100.00
75933;BME280;64803;52.356;5.310;2023-05-07T01:26:42;101939.91;;;13.03;100.00
75933;BME280;64803;52.356;5.310;2023-05-07T01:29:09;101957.28;;;13.09;100.00
75933;BME280;64803;52.356;5.310;2023-05-07T01:31:36;101959.31;;;13.07;100.00
75933;BME280;64803;52.356;5.310;2023-05-07T01:34:03;101964.53;;;13.08;100.00
75933;BME280;64803;52.356;5.310;2023-05-07T01:36:32;101957.28;;;13.09;100.00
75933;BME280;64803;52.356;5.310;2023-05-07T01:38:58;101955.25;;;13.11;100.00
75933;BME280;64803;52.356;5.310;2023-05-07T01:41:25;101954.94;;;13.14;100.00
75933;BME280;64803;52.356;5.310;2023-05-07T01:43:52;101955.44;;;13.17;100.00
75933;BME280;64803;52.356;5.310;2023-05-07T01:46:19;101949.53;;;13.22;100.00
75933;BME280;64803;52.356;5.310;2023-05-07T01:48:46;101941.94;;;13.25;100.00
75933;BME280;64803;52.356;5.310;2023-05-07T01:51:12;101939.91;;;13.27;100.00
75933;BME280;64803;52.356;5.310;2023-05-07T01:53:39;101944.16;;;13.30;100.00
75933;BME280;64803;52.356;5.310;2023-05-07T01:56:07;101930.97;;;13.19;100.00
75933;BME280;64803;52.356;5.310;2023-05-07T01:58:34;101953.06;;;13.30;100.00
75933;BME280;64803;52.356;5.310;2023-05-07T02:01:01;101943.28;;;13.29;100.00
75933;BME280;64803;52.356;5.310;2023-05-07T02:03:27;101938.41;;;13.33;100.00
75933;BME280;64803;52.356;5.310;2023-05-07T02:06:02;101944.97;;;13.30;100.00
75933;BME280;64803;52.356;5.310;2023-05-07T02:08:38;101951.56;;;13.28;100.00
75933;BME280;64803;52.356;5.310;2023-05-07T02:11:05;101955.25;;;13.27;100.00
75933;BME280;64803;52.356;5.310;2023-05-07T02:13:33;101949.84;;;13.27;100.00
75933;BME280;64803;52.356;5.310;2023-05-07T02:16:01;101957.31;;;13.25;100.00
75933;BME280;64803;52.356;5.310;2023-05-07T02:18:27;101941.59;;;13.20;100.00
75933;BME280;64803;52.356;5.310;2023-05-07T02:20:54;101956.59;;;13.15;100.00
75933;BME280;64803;52.356;5.310;2023-05-07T02:23:20;101955.41;;;13.09;100.00
75933;BME280;64803;52.356;5.310;2023-05-07T02:25:46;101952.69;;;13.01;100.00
75933;BME280;64803;52.356;5.310;2023-05-07T02:28:12;101952.69;;;12.93;100.00
75933;BME280;64803;52.356;5.310;2023-05-07T02:30:58;101951.50;;;12.88;100.00
75933;BME280;64803;52.356;5.310;2023-05-07T02:33:26;101950.81;;;12.86;100.00
75933;BME280;64803;52.356;5.310;2023-05-07T02:35:53;101956.38;;;12.84;100.00
75933;BME280;64803;52.356;5.310;2023-05-07T02:38:19;101948.75;;;12.72;100.00
75933;BME280;64803;52.356;5.310;2023-05-07T02:40:45;101972.00;;;12.73;100.00
75933;BME280;64803;52.356;5.310;2023-05-07T02:43:11;101971.00;;;12.74;100.00
75933;BME280;64803;52.356;5.310;2023-05-07T02:45:41;101962.56;;;12.77;100.00
75933;BME280;64803;52.356;5.310;2023-05-07T02:48:08;101964.28;;;12.78;100.00
75933;BME280;64803;52.356;5.310;2023-05-07T02:50:34;101960.22;;;12.82;100.00
75933;BME280;64803;52.356;5.310;2023-05-07T02:53:00;101953.69;;;12.84;100.00
75933;BME280;64803;52.356;5.310;2023-05-07T02:55:27;101934.63;;;12.78;100.00
75933;BME280;64803;52.356;5.310;2023-05-07T02:57:53;101961.75;;;12.92;100.00
75933;BME280;64803;52.356;5.310;2023-05-07T03:00:20;101955.88;;;12.97;100.00
75933;BME280;64803;52.356;5.310;2023-05-07T03:03:08;101954.88;;;12.98;100.00
75933;BME280;64803;52.356;5.310;2023-05-07T03:05:34;101958.06;;;13.01;100.00
75933;BME280;64803;52.356;5.310;2023-05-07T03:08:00;101966.72;;;13.05;100.00
75933;BME280;64803;52.356;5.310;2023-05-07T03:10:26;101954.91;;;13.06;100.00
75933;BME280;64803;52.356;5.310;2023-05-07T03:12:52;101946.81;;;13.06;100.00
75933;BME280;64803;52.356;5.310;2023-05-07T03:15:18;101956.09;;;13.03;100.00
75933;BME280;64803;52.356;5.310;2023-05-07T03:17:44;101956.25;;;13.02;100.00
75933;BME280;64803;52.356;5.310;2023-05-07T03:20:11;101953.41;;;13.03;100.00
75933;BME280;64803;52.356;5.310;2023-05-07T03:22:37;101962.63;;;13.01;100.00
75933;BME280;64803;52.356;5.310;2023-05-07T03:25:03;101964.47;;;12.92;100.00
75933;BME280;64803;52.356;5.310;2023-05-07T03:27:30;101959.22;;;12.83;100.00
75933;BME280;64803;52.356;5.310;2023-05-07T03:29:56;101960.41;;;12.80;100.00
75933;BME280;64803;52.356;5.310;2023-05-07T03:32:22;101964.78;;;12.81;100.00
75933;BME280;64803;52.356;5.310;2023-05-07T03:34:48;101953.69;;;12.84;100.00
75933;BME280;64803;52.356;5.310;2023-05-07T03:37:14;101940.84;;;12.78;100.00
75933;BME280;64803;52.356;5.310;2023-05-07T03:39:41;101943.22;;;12.81;100.00
75933;BME280;64803;52.356;5.310;2023-05-07T03:42:07;101951.97;;;12.83;100.00
75933;BME280;64803;52.356;5.310;2023-05-07T03:44:33;101945.06;;;12.81;100.00
75933;BME280;64803;52.356;5.310;2023-05-07T03:47:00;101919.78;;;12.66;100.00
75933;BME280;64803;52.356;5.310;2023-05-07T03:49:26;101949.63;;;12.80;100.00
75933;BME280;64803;52.356;5.310;2023-05-07T03:51:52;101946.06;;;12.80;100.00
75933;BME280;64803;52.356;5.310;2023-05-07T03:54:18;101953.16;;;12.81;100.00
75933;BME280;64803;52.356;5.310;2023-05-07T03:56:46;101960.56;;;12.87;100.00
75933;BME280;64803;52.356;5.310;2023-05-07T03:59:13;101958.56;;;12.89;100.00
75933;BME280;64803;52.356;5.310;2023-05-07T04:01:39;101960.25;;;12.90;100.00
75933;BME280;64803;52.356;5.310;2023-05-07T04:04:06;101964.63;;;12.91;100.00
75933;BME280;64803;52.356;5.310;2023-05-07T04:06:34;101966.16;;;12.93;100.00
75933;BME280;64803;52.356;5.310;2023-05-07T04:09:00;101966.16;;;12.93;100.00
75933;BME280;64803;52.356;5.310;2023-05-07T04:11:26;101966.00;;;12.95;100.00
75933;BME280;64803;52.356;5.310;2023-05-07T04:13:53;101971.91;;;12.98;100.00
75933;BME280;64803;52.356;5.310;2023-05-07T04:16:22;101963.97;;;12.97;100.00
75933;BME280;64803;52.356;5.310;2023-05-07T04:18:48;101969.56;;;13.03;100.00
75933;BME280;64803;52.356;5.310;2023-05-07T04:21:19;101975.47;;;13.07;100.00
75933;BME280;64803;52.356;5.310;2023-05-07T04:23:47;101975.47;;;13.07;100.00
75933;BME280;64803;52.356;5.310;2023-05-07T04:26:14;101975.13;;;13.10;100.00
75933;BME280;64803;52.356;5.310;2023-05-07T04:28:43;101985.59;;;13.13;100.00
75933;BME280;64803;52.356;5.310;2023-05-07T04:31:09;101980.19;;;13.13;100.00
75933;BME280;64803;52.356;5.310;2023-05-07T04:33:36;101972.94;;;13.13;100.00
75933;BME280;64803;52.356;5.310;2023-05-07T04:36:04;101991.00;;;13.21;100.00
75933;BME280;64803;52.356;5.310;2023-05-07T04:38:34;101978.88;;;13.25;100.00
75933;BME280;64803;52.356;5.310;2023-05-07T04:41:06;101983.09;;;13.27;100.00
75933;BME280;64803;52.356;5.310;2023-05-07T04:43:35;101978.03;;;13.32;100.00
75933;BME280;64803;52.356;5.310;2023-05-07T04:46:01;101950.53;;;13.21;100.00
75933;BME280;64803;52.356;5.310;2023-05-07T04:48:28;101976.50;;;13.38;100.00
75933;BME280;64803;52.356;5.310;2023-05-07T04:50:55;101974.66;;;13.38;100.00
75933;BME280;64803;52.356;5.310;2023-05-07T04:53:21;101975.16;;;13.42;100.00
75933;BME280;64803;52.356;5.310;2023-05-07T04:55:54;101984.94;;;13.43;100.00
75933;BME280;64803;52.356;5.310;2023-05-07T04:58:21;101985.28;;;13.48;100.00
75933;BME280;64803;52.356;5.310;2023-05-07T05:00:47;101981.22;;;13.52;100.00
75933;BME280;64803;52.356;5.310;2023-05-07T05:03:13;101984.78;;;13.52;100.00
75933;BME280;64803;52.356;5.310;2023-05-07T05:05:39;101987.97;;;13.56;100.00
75933;BME280;64803;52.356;5.310;2023-05-07T05:08:05;101983.91;;;13.60;100.00
75933;BME280;64803;52.356;5.310;2023-05-07T05:10:35;101992.34;;;13.65;100.00
75933;BME280;64803;52.356;5.310;2023-05-07T05:13:01;101994.38;;;13.71;100.00
75933;BME280;64803;52.356;5.310;2023-05-07T05:15:27;102004.34;;;13.79;100.00
75933;BME280;64803;52.356;5.310;2023-05-07T05:17:53;101999.44;;;13.82;100.00
75933;BME280;64803;52.356;5.310;2023-05-07T05:20:19;102004.47;;;13.85;100.00
75933;BME280;64803;52.356;5.310;2023-05-07T05:22:46;102002.97;;;13.91;100.00
75933;BME280;64803;52.356;5.310;2023-05-07T05:25:13;102006.16;;;13.94;100.00
75933;BME280;64803;52.356;5.310;2023-05-07T05:27:39;102010.84;;;14.00;100.00
75933;BME280;64803;52.356;5.310;2023-05-07T05:30:06;102004.97;;;14.05;100.00
75933;BME280;64803;52.356;5.310;2023-05-07T05:32:33;102015.91;;;14.11;100.00
75933;BME280;64803;52.356;5.310;2023-05-07T05:34:59;102020.97;;;14.14;100.00
75933;BME280;64803;52.356;5.310;2023-05-07T05:37:25;102016.72;;;14.20;100.00
75933;BME280;64803;52.356;5.310;2023-05-07T05:39:52;102012.50;;;14.25;100.00
75933;BME280;64803;52.356;5.310;2023-05-07T05:42:20;102015.56;;;14.30;100.00
75933;BME280;64803;52.356;5.310;2023-05-07T05:44:47;102013.16;;;14.35;100.00
75933;BME280;64803;52.356;5.310;2023-05-07T05:47:13;102008.97;;;14.33;100.00
75933;BME280;64803;52.356;5.310;2023-05-07T05:49:40;102014.16;;;14.42;100.00
75933;BME280;64803;52.356;5.310;2023-05-07T05:52:07;102013.78;;;14.45;100.00
75933;BME280;64803;52.356;5.310;2023-05-07T05:54:33;102010.19;;;14.61;100.00
75933;BME280;64803;52.356;5.310;2023-05-07T05:56:59;102012.50;;;14.72;100.00
75933;BME280;64803;52.356;5.310;2023-05-07T05:59:26;102009.94;;;14.79;100.00
75933;BME280;64803;52.356;5.310;2023-05-07T06:01:53;102015.34;;;14.79;100.00
75933;BME280;64803;52.356;5.310;2023-05-07T06:04:19;102017.03;;;14.80;100.00
75933;BME280;64803;52.356;5.310;2023-05-07T06:06:45;102020.06;;;14.85;100.00
75933;BME280;64803;52.356;5.310;2023-05-07T06:09:11;102026.56;;;14.98;100.00
75933;BME280;64803;52.356;5.310;2023-05-07T06:11:42;102021.28;;;15.05;100.00
75933;BME280;64803;52.356;5.310;2023-05-07T06:14:09;102021.91;;;15.15;100.00
75933;BME280;64803;52.356;5.310;2023-05-07T06:16:35;102030.66;;;15.17;100.00
75933;BME280;64803;52.356;5.310;2023-05-07T06:19:05;102031.03;;;15.14;100.00
75933;BME280;64803;52.356;5.310;2023-05-07T06:21:30;102006.94;;;15.04;100.00
75933;BME280;64803;52.356;5.310;2023-05-07T06:23:57;102032.47;;;15.24;100.00
75933;BME280;64803;52.356;5.310;2023-05-07T06:26:23;102035.78;;;15.42;100.00
75933;BME280;64803;52.356;5.310;2023-05-07T06:28:49;102035.97;;;15.33;100.00
75933;BME280;64803;52.356;5.310;2023-05-07T06:31:18;102038.69;;;15.41;100.00
75933;BME280;64803;52.356;5.310;2023-05-07T06:33:52;102049.13;;;15.44;100.00
75933;BME280;64803;52.356;5.310;2023-05-07T06:36:18;102051.50;;;15.39;100.00
75933;BME280;64803;52.356;5.310;2023-05-07T06:38:45;102061.00;;;15.35;100.00
75933;BME280;64803;52.356;5.310;2023-05-07T06:41:11;102046.78;;;15.33;100.00
75933;BME280;64803;52.356;5.310;2023-05-07T06:43:38;102053.22;;;15.40;100.00
75933;BME280;64803;52.356;5.310;2023-05-07T06:46:30;102031.59;;;15.32;100.00
75933;BME280;64803;52.356;5.310;2023-05-07T06:48:56;102052.50;;;15.46;100.00
75933;BME280;64803;52.356;5.310;2023-05-07T06:51:23;102060.56;;;15.54;100.00
75933;BME280;64803;52.356;5.310;2023-05-07T06:53:49;102064.78;;;15.56;100.00
75933;BME280;64803;52.356;5.310;2023-05-07T06:56:15;102060.66;;;15.60;100.00
75933;BME280;64803;52.356;5.310;2023-05-07T06:58:41;102061.50;;;15.61;100.00
75933;BME280;64803;52.356;5.310;2023-05-07T07:01:09;102070.78;;;15.66;100.00
75933;BME280;64803;52.356;5.310;2023-05-07T07:03:36;102067.81;;;15.76;100.00
75933;BME280;64803;52.356;5.310;2023-05-07T07:06:02;102068.47;;;15.78;100.00
75933;BME280;64803;52.356;5.310;2023-05-07T07:08:29;102049.34;;;15.79;100.00
75933;BME280;64803;52.356;5.310;2023-05-07T07:10:56;102049.94;;;15.90;100.00
75933;BME280;64803;52.356;5.310;2023-05-07T07:13:21;102052.84;;;15.88;100.00
75933;BME280;64803;52.356;5.310;2023-05-07T07:15:47;102060.97;;;15.88;100.00
75933;BME280;64803;52.356;5.310;2023-05-07T07:18:14;102058.97;;;15.82;100.00
75933;BME280;64803;52.356;5.310;2023-05-07T07:20:40;102062.25;;;15.92;100.00
75933;BME280;64803;52.356;5.310;2023-05-07T07:23:07;102066.31;;;15.96;100.00
75933;BME280;64803;52.356;5.310;2023-05-07T07:25:33;102060.50;;;15.99;100.00
75933;BME280;64803;52.356;5.310;2023-05-07T07:27:59;102058.47;;;16.01;100.00
75933;BME280;64803;52.356;5.310;2023-05-07T07:30:27;102056.13;;;15.98;100.00
75933;BME280;64803;52.356;5.310;2023-05-07T07:32:54;102064.44;;;16.11;100.00
75933;BME280;64803;52.356;5.310;2023-05-07T07:35:22;102060.09;;;16.25;100.00
75933;BME280;64803;52.356;5.310;2023-05-07T07:37:48;102039.63;;;16.37;100.00
75933;BME280;64803;52.356;5.310;2023-05-07T07:40:16;102054.78;;;16.60;100.00
75933;BME280;64803;52.356;5.310;2023-05-07T07:42:43;102066.94;;;16.79;100.00
75933;BME280;64803;52.356;5.310;2023-05-07T07:45:10;102066.66;;;16.88;100.00
75933;BME280;64803;52.356;5.310;2023-05-07T07:47:40;102067.69;;;16.88;100.00
75933;BME280;64803;52.356;5.310;2023-05-07T07:50:07;102064.41;;;16.77;100.00
75933;BME280;64803;52.356;5.310;2023-05-07T07:52:33;102042.94;;;16.61;100.00
75933;BME280;64803;52.356;5.310;2023-05-07T07:55:00;102054.22;;;16.79;100.00
75933;BME280;64803;52.356;5.310;2023-05-07T07:57:26;102064.47;;;16.99;100.00
75933;BME280;64803;52.356;5.310;2023-05-07T07:59:52;102053.34;;;17.08;100.00
75933;BME280;64803;52.356;5.310;2023-05-07T08:02:19;102053.72;;;17.26;100.00
75933;BME280;64803;52.356;5.310;2023-05-07T08:04:46;102058.06;;;17.21;100.00
75933;BME280;64803;52.356;5.310;2023-05-07T08:07:12;102042.66;;;17.28;100.00
75933;BME280;64803;52.356;5.310;2023-05-07T08:09:41;102055.28;;;17.50;100.00
75933;BME280;64803;52.356;5.310;2023-05-07T08:12:09;102056.75;;;17.52;100.00
75933;BME280;64803;52.356;5.310;2023-05-07T08:14:35;102055.47;;;17.48;100.00
75933;BME280;64803;52.356;5.310;2023-05-07T08:17:04;102060.06;;;17.48;100.00
75933;BME280;64803;52.356;5.310;2023-05-07T08:19:31;102068.31;;;17.61;100.00
75933;BME280;64803;52.356;5.310;2023-05-07T08:21:57;102065.59;;;17.61;100.00
75933;BME280;64803;52.356;5.310;2023-05-07T08:24:25;102068.97;;;17.63;100.00
75933;BME280;64803;52.356;5.310;2023-05-07T08:26:51;102062.84;;;17.54;100.00
75933;BME280;64803;52.356;5.310;2023-05-07T08:29:17;102066.34;;;17.48;100.00
75933;BME280;64803;52.356;5.310;2023-05-07T08:31:44;102058.00;;;17.50;100.00
75933;BME280;64803;52.356;5.310;2023-05-07T08:34:10;102056.53;;;17.33;100.00
75933;BME280;64803;52.356;5.310;2023-05-07T08:36:39;102057.06;;;17.43;100.00
75933;BME280;64803;52.356;5.310;2023-05-07T08:39:08;102061.38;;;17.52;100.00
75933;BME280;64803;52.356;5.310;2023-05-07T08:41:34;102060.19;;;17.61;100.00
75933;BME280;64803;52.356;5.310;2023-05-07T08:44:02;102063.94;;;17.81;100.00
75933;BME280;64803;52.356;5.310;2023-05-07T08:46:31;102063.28;;;17.79;100.00
75933;BME280;64803;52.356;5.310;2023-05-07T08:48:58;102068.72;;;17.79;100.00
75933;BME280;64803;52.356;5.310;2023-05-07T08:51:24;102076.72;;;17.87;100.00
75933;BME280;64803;52.356;5.310;2023-05-07T08:53:52;102080.28;;;17.87;100.00
75933;BME280;64803;52.356;5.310;2023-05-07T08:56:23;102079.72;;;17.92;100.00
75933;BME280;64803;52.356;5.310;2023-05-07T08:58:51;102079.28;;;17.88;100.00
75933;BME280;64803;52.356;5.310;2023-05-07T09:01:22;102046.13;;;17.78;100.00
75933;BME280;64803;52.356;5.310;2023-05-07T09:03:51;102071.25;;;18.08;100.00
75933;BME280;64803;52.356;5.310;2023-05-07T09:06:19;102071.94;;;18.17;100.00
75933;BME280;64803;52.356;5.310;2023-05-07T09:08:50;102079.16;;;18.31;100.00
75933;BME280;64803;52.356;5.310;2023-05-07T09:11:22;102070.38;;;18.29;100.00
75933;BME280;64803;52.356;5.310;2023-05-07T09:13:53;102090.22;;;18.50;100.00
75933;BME280;64803;52.356;5.310;2023-05-07T09:16:21;102081.50;;;18.61;100.00
75933;BME280;64803;52.356;5.310;2023-05-07T09:18:51;102091.78;;;18.66;100.00
75933;BME280;64803;52.356;5.310;2023-05-07T09:21:18;102084.28;;;18.74;100.00
75933;BME280;64803;52.356;5.310;2023-05-07T09:23:49;102084.13;;;18.82;100.00
75933;BME280;64803;52.356;5.310;2023-05-07T09:26:16;102086.91;;;18.95;100.00
75933;BME280;64803;52.356;5.310;2023-05-07T09:28:42;102086.53;;;19.05;100.00
75933;BME280;64803;52.356;5.310;2023-05-07T09:31:11;102096.00;;;19.16;100.00
75933;BME280;64803;52.356;5.310;2023-05-07T09:33:38;102088.84;;;19.08;100.00
75933;BME280;64803;52.356;5.310;2023-05-07T09:36:07;102091.00;;;19.26;100.00
75933;BME280;64803;52.356;5.310;2023-05-07T09:38:34;102088.94;;;19.28;100.00
75933;BME280;64803;52.356;5.310;2023-05-07T09:41:09;102086.69;;;19.38;100.00
75933;BME280;64803;52.356;5.310;2023-05-07T09:43:42;102082.31;;;19.43;100.00
75933;BME280;64803;52.356;5.310;2023-05-07T09:46:15;102082.31;;;19.56;100.00
75933;BME280;64803;52.356;5.310;2023-05-07T09:48:48;102078.34;;;19.59;100.00
75933;BME280;64803;52.356;5.310;2023-05-07T09:51:24;102083.81;;;19.72;100.00
75933;BME280;64803;52.356;5.310;2023-05-07T09:53:53;102079.19;;;19.66;100.00
75933;BME280;64803;52.356;5.310;2023-05-07T09:56:19;102086.53;;;19.59;100.00
75933;BME280;64803;52.356;5.310;2023-05-07T09:58:47;102086.09;;;19.62;100.00
75933;BME280;64803;52.356;5.310;2023-05-07T10:01:17;102086.53;;;19.72;100.00
75933;BME280;64803;52.356;5.310;2023-05-07T10:03:43;102067.66;;;19.64;100.00
75933;BME280;64803;52.356;5.310;2023-05-07T10:06:10;102085.72;;;19.65;100.00
75933;BME280;64803;52.356;5.310;2023-05-07T10:08:37;102068.09;;;19.54;100.00
75933;BME280;64803;52.356;5.310;2023-05-07T10:11:05;102050.88;;;19.60;100.00
75933;BME280;64803;52.356;5.310;2023-05-07T10:13:33;102048.19;;;19.80;100.00
75933;BME280;64803;52.356;5.310;2023-05-07T10:16:05;102082.34;;;20.08;100.00
75933;BME280;64803;52.356;5.310;2023-05-07T10:18:36;102080.31;;;20.17;100.00
75933;BME280;64803;52.356;5.310;2023-05-07T10:21:20;102085.31;;;20.13;100.00
75933;BME280;64803;52.356;5.310;2023-05-07T10:23:50;102087.38;;;20.05;100.00
75933;BME280;64803;52.356;5.310;2023-05-07T10:26:18;102087.19;;;19.93;100.00
75933;BME280;64803;52.356;5.310;2023-05-07T10:28:49;102086.16;;;20.01;100.00
75933;BME280;64803;52.356;5.310;2023-05-07T10:34:37;102094.16;;;20.22;100.00
75933;BME280;64803;52.356;5.310;2023-05-07T10:37:05;102092.88;;;20.31;100.00
75933;BME280;64803;52.356;5.310;2023-05-07T10:39:31;102097.25;;;20.45;100.00
75933;BME280;64803;52.356;5.310;2023-05-07T10:42:07;102097.25;;;20.45;100.00
75933;BME280;64803;52.356;5.310;2023-05-07T10:44:34;102092.88;;;20.31;100.00
75933;BME280;64803;52.356;5.310;2023-05-07T10:47:10;102100.19;;;20.11;100.00
75933;BME280;64803;52.356;5.310;2023-05-07T10:52:20;102097.06;;;20.47;100.00
75933;BME280;64803;52.356;5.310;2023-05-07T10:55:20;102094.50;;;20.58;100.00
75933;BME280;64803;52.356;5.310;2023-05-07T10:58:27;102097.44;;;20.63;100.00
75933;BME280;64803;52.356;5.310;2023-05-07T11:01:52;102095.31;;;20.72;100.00
75933;BME280;64803;52.356;5.310;2023-05-07T11:04:24;102095.69;;;20.82;100.00
75933;BME280;64803;52.356;5.310;2023-05-07T11:15:07;102090.53;;;21.24;100.00
75933;BME280;64803;52.356;5.310;2023-05-07T11:17:56;102092.19;;;21.25;100.00
75933;BME280;64803;52.356;5.310;2023-05-07T11:20:44;102094.69;;;21.34;100.00
75933;BME280;64803;52.356;5.310;2023-05-07T11:26:06;102102.22;;;21.76;100.00
75933;BME280;64803;52.356;5.310;2023-05-07T11:28:42;102097.63;;;21.70;100.00
75933;BME280;64803;52.356;5.310;2023-05-07T11:31:10;102081.66;;;21.36;100.00
75933;BME280;64803;52.356;5.310;2023-05-07T11:33:41;102101.59;;;21.43;100.00
75933;BME280;64803;52.356;5.310;2023-05-07T11:36:13;102102.66;;;21.35;100.00
75933;BME280;64803;52.356;5.310;2023-05-07T11:38:45;102101.72;;;21.54;100.00
75933;BME280;64803;52.356;5.310;2023-05-07T11:41:11;102101.94;;;21.53;100.00
75933;BME280;64803;52.356;5.310;2023-05-07T11:43:37;102099.84;;;21.48;100.00
75933;BME280;64803;52.356;5.310;2023-05-07T11:46:10;102098.69;;;21.69;100.00
75933;BME280;64803;52.356;5.310;2023-05-07T11:48:36;102091.44;;;21.87;100.00
75933;BME280;64803;52.356;5.310;2023-05-07T11:51:04;102096.38;;;21.97;100.00
75933;BME280;64803;52.356;5.310;2023-05-07T11:53:37;102097.69;;;22.44;100.00
75933;BME280;64803;52.356;5.310;2023-05-07T11:56:15;102094.78;;;22.39;100.00
75933;BME280;64803;52.356;5.310;2023-05-07T11:58:42;102084.78;;;22.26;100.00
75933;BME280;64803;52.356;5.310;2023-05-07T12:01:10;102097.16;;;22.04;100.00
75933;BME280;64803;52.356;5.310;2023-05-07T12:03:37;102096.44;;;21.90;100.00
75933;BME280;64803;52.356;5.310;2023-05-07T12:06:06;102093.22;;;22.24;100.00
75933;BME280;64803;52.356;5.310;2023-05-07T12:08:32;102092.41;;;22.42;100.00
75933;BME280;64803;52.356;5.310;2023-05-07T12:10:58;102093.72;;;22.40;100.00
75933;BME280;64803;52.356;5.310;2023-05-07T12:13:25;102093.16;;;22.31;100.00
75933;BME280;64803;52.356;5.310;2023-05-07T12:15:55;102108.03;;;22.17;100.00
75933;BME280;64803;52.356;5.310;2023-05-07T12:18:22;102103.94;;;22.01;100.00
75933;BME280;64803;52.356;5.310;2023-05-07T12:20:48;102103.03;;;22.07;100.00
75933;BME280;64803;52.356;5.310;2023-05-07T12:23:15;102097.06;;;21.92;100.00
75933;BME280;64803;52.356;5.310;2023-05-07T12:25:43;102093.94;;;21.89;100.00
75933;BME280;64803;52.356;5.310;2023-05-07T12:28:13;102097.69;;;21.94;100.00
75933;BME280;64803;52.356;5.310;2023-05-07T12:30:42;102093.63;;;22.28;100.00
75933;BME280;64803;52.356;5.310;2023-05-07T12:33:08;102077.78;;;22.30;100.00
75933;BME280;64803;52.356;5.310;2023-05-07T12:35:41;102109.81;;;22.54;99.74
75933;BME280;64803;52.356;5.310;2023-05-07T12:38:09;102098.63;;;22.74;100.00
75933;BME280;64803;52.356;5.310;2023-05-07T12:40:40;102099.25;;;22.76;98.60
75933;BME280;64803;52.356;5.310;2023-05-07T12:43:07;102097.44;;;22.70;92.81
75933;BME280;64803;52.356;5.310;2023-05-07T12:45:37;102074.31;;;21.61;93.58
75933;BME280;64803;52.356;5.310;2023-05-07T12:48:04;102103.25;;;21.75;97.60
75933;BME280;64803;52.356;5.310;2023-05-07T12:50:31;102094.09;;;21.94;100.00
75933;BME280;64803;52.356;5.310;2023-05-07T12:52:58;102105.66;;;21.96;100.00
75933;BME280;64803;52.356;5.310;2023-05-07T12:55:25;102105.84;;;22.25;100.00
75933;BME280;64803;52.356;5.310;2023-05-07T12:57:52;102095.91;;;22.31;100.00
75933;BME280;64803;52.356;5.310;2023-05-07T13:00:32;102106.66;;;22.51;100.00
75933;BME280;64803;52.356;5.310;2023-05-07T13:02:58;102100.34;;;22.50;94.11